createdAt,value
2022-10-26T00:01:08.707Z,100270.78
2022-10-26T00:03:42.517Z,100274.20
2022-10-26T00:06:19.541Z,100274.25
2022-10-26T00:08:52.164Z,100266.47
2022-10-26T00:11:24.748Z,100270.84
2022-10-26T00:13:56.726Z,100265.69
2022-10-26T00:16:29.475Z,100263.17
2022-10-26T00:19:01.630Z,100264.94
2022-10-26T00:21:33.612Z,100262.30
2022-10-26T00:24:05.845Z,100263.25
2022-10-26T00:26:37.836Z,100253.84
2022-10-26T00:29:11.524Z,100254.86
2022-10-26T00:31:43.393Z,100248.99
2022-10-26T00:34:15.310Z,100238.78
2022-10-26T00:36:47.509Z,100243.20
2022-10-26T00:39:20.706Z,100245.08
2022-10-26T00:41:52.732Z,100244.26
2022-10-26T00:44:51.522Z,100251.27
2022-10-26T00:47:26.450Z,100248.69
2022-10-26T00:50:01.131Z,100243.53
2022-10-26T00:52:33.744Z,100243.57
2022-10-26T00:55:07.395Z,100248.72
2022-10-26T00:57:40.726Z,100259.02
2022-10-26T01:00:12.829Z,100259.00
2022-10-26T01:02:47.406Z,100254.63
2022-10-26T01:05:20.414Z,100243.38
2022-10-26T01:07:52.847Z,100244.17
2022-10-26T01:10:26.238Z,100242.44
2022-10-26T01:13:00.461Z,100239.73
2022-10-26T01:15:41.869Z,100240.55
2022-10-26T01:18:22.446Z,100248.91
2022-10-26T01:21:16.337Z,100249.89
2022-10-26T01:23:51.180Z,100253.27
2022-10-26T01:26:31.671Z,100256.70
2022-10-26T01:29:12.069Z,100253.21
2022-10-26T01:31:46.861Z,100246.25
2022-10-26T01:34:24.751Z,100246.25
2022-10-26T01:37:02.315Z,100246.25
2022-10-26T01:39:39.869Z,100247.08
2022-10-26T01:42:14.530Z,100246.22
2022-10-26T01:44:55.218Z,100247.97
2022-10-26T01:47:28.708Z,100247.08
2022-10-26T01:50:02.084Z,100250.47
2022-10-26T01:52:34.473Z,100250.45
2022-10-26T01:55:09.510Z,100251.27
2022-10-26T01:57:41.940Z,100252.14
2022-10-26T02:00:14.802Z,100246.97
2022-10-26T02:03:04.761Z,100243.60
2022-10-26T02:05:51.294Z,100248.94
2022-10-26T02:08:31.888Z,100246.48
2022-10-26T02:11:09.332Z,100255.27
2022-10-26T02:13:49.852Z,100251.16
2022-10-26T02:16:37.435Z,100250.49
2022-10-26T02:19:15.294Z,100248.94
2022-10-26T02:21:51.423Z,100252.53
2022-10-26T02:24:26.182Z,100243.95
2022-10-26T02:26:59.791Z,100242.30
2022-10-26T02:29:34.410Z,100237.23
2022-10-26T02:32:09.343Z,100240.73
2022-10-26T02:34:43.536Z,100245.13
2022-10-26T02:37:16.581Z,100239.99
2022-10-26T02:39:51.150Z,100245.03
2022-10-26T02:42:25.489Z,100240.06
2022-10-26T02:45:03.460Z,100251.30
2022-10-26T02:47:35.690Z,100245.22
2022-10-26T02:50:08.018Z,100247.76
2022-10-26T02:52:57.755Z,100244.25
2022-10-26T02:55:32.671Z,100241.61
2022-10-26T02:58:07.521Z,100246.69
2022-10-26T03:00:40.079Z,100246.59
2022-10-26T03:03:11.984Z,100253.41
2022-10-26T03:05:44.578Z,100249.88
2022-10-26T03:08:16.917Z,100250.65
2022-10-26T03:10:48.861Z,100249.73
2022-10-26T03:13:20.900Z,100253.94
2022-10-26T03:15:54.457Z,100247.78
2022-10-26T03:18:26.893Z,100245.97
2022-10-26T03:20:58.882Z,100238.05
2022-10-26T03:23:30.873Z,100244.88
2022-10-26T03:26:02.963Z,100245.66
2022-10-26T03:28:35.189Z,100244.73
2022-10-26T03:31:07.353Z,100239.50
2022-10-26T03:33:39.302Z,100239.45
2022-10-26T03:36:11.447Z,100240.27
2022-10-26T03:38:43.278Z,100240.21
2022-10-26T03:41:15.576Z,100241.89
2022-10-26T03:43:48.883Z,100244.41
2022-10-26T03:46:20.809Z,100237.48
2022-10-26T03:48:52.821Z,100238.35
2022-10-26T03:51:24.918Z,100238.30
2022-10-26T03:53:56.856Z,100239.09
2022-10-26T03:56:29.074Z,100231.33
2022-10-26T03:59:01.290Z,100228.73
2022-10-26T04:01:33.429Z,100232.12
2022-10-26T04:04:05.566Z,100237.27
2022-10-26T04:06:37.570Z,100226.89
2022-10-26T04:09:09.705Z,100231.19
2022-10-26T04:11:42.011Z,100231.17
2022-10-26T04:14:14.283Z,100232.90
2022-10-26T04:16:46.234Z,100236.31
2022-10-26T04:19:18.470Z,100237.11
2022-10-26T04:21:54.795Z,100235.33
2022-10-26T04:24:26.631Z,100241.33
2022-10-26T04:26:58.741Z,100251.61
2022-10-26T04:29:31.755Z,100241.19
2022-10-26T04:32:04.106Z,100255.80
2022-10-26T04:34:36.176Z,100250.56
2022-10-26T04:37:09.290Z,100257.31
2022-10-26T04:39:41.226Z,100254.63
2022-10-26T04:42:14.299Z,100253.58
2022-10-26T04:44:46.588Z,100253.47
2022-10-26T04:47:18.944Z,100259.34
2022-10-26T04:49:50.882Z,100258.33
2022-10-26T04:52:22.827Z,100252.13
2022-10-26T04:54:54.883Z,100256.30
2022-10-26T04:57:27.044Z,100258.80
2022-10-26T04:59:59.351Z,100256.14
2022-10-26T05:02:33.209Z,100256.92
2022-10-26T05:05:07.821Z,100253.35
2022-10-26T05:07:39.186Z,100251.56
2022-10-26T05:10:12.076Z,100249.77
2022-10-26T05:12:44.098Z,100257.55
2022-10-26T05:15:16.489Z,100246.20
2022-10-26T05:17:49.471Z,100248.67
2022-10-26T05:20:21.832Z,100251.19
2022-10-26T05:22:58.799Z,100253.65
2022-10-26T05:25:32.729Z,100250.09
2022-10-26T05:28:09.706Z,100247.34
2022-10-26T05:30:43.090Z,100244.80
2022-10-26T05:33:16.335Z,100241.34
2022-10-26T05:35:48.738Z,100239.55
2022-10-26T05:38:21.511Z,100246.56
2022-10-26T05:40:55.957Z,100256.94
2022-10-26T05:43:28.805Z,100251.73
2022-10-26T05:46:02.277Z,100250.06
2022-10-26T05:48:34.878Z,100260.41
2022-10-26T05:51:07.417Z,100256.80
2022-10-26T05:53:40.189Z,100263.58
2022-10-26T05:56:18.034Z,100256.48
2022-10-26T05:58:50.718Z,100262.34
2022-10-26T06:01:40.921Z,100263.92
2022-10-26T06:04:21.505Z,100268.00
2022-10-26T06:06:55.582Z,100266.98
2022-10-26T06:09:27.999Z,100269.45
2022-10-26T06:12:01.993Z,100259.75
2022-10-26T06:14:34.577Z,100254.30
2022-10-26T06:17:25.922Z,100255.77
2022-10-26T06:20:08.765Z,100259.94
2022-10-26T06:22:52.745Z,100256.33
2022-10-26T06:25:30.682Z,100259.73
2022-10-26T06:28:18.423Z,100257.89
2022-10-26T06:30:50.622Z,100255.11
2022-10-26T06:33:31.052Z,100250.37
2022-10-26T06:36:23.746Z,100247.44
2022-10-26T06:39:07.564Z,100257.48
2022-10-26T06:41:40.057Z,100250.04
2022-10-26T06:44:16.167Z,100252.30
2022-10-26T06:46:51.245Z,100256.36
2022-10-26T06:49:47.065Z,100245.69
2022-10-26T06:52:37.323Z,100248.92
2022-10-26T06:55:17.439Z,100246.94
2022-10-26T06:57:51.061Z,100246.61
2022-10-26T07:00:26.797Z,100248.16
2022-10-26T07:03:00.327Z,100253.87
2022-10-26T07:05:32.292Z,100250.75
2022-10-26T07:08:04.484Z,100251.53
2022-10-26T07:10:38.385Z,100243.92
2022-10-26T07:13:11.580Z,100244.88
2022-10-26T07:15:44.469Z,100244.88
2022-10-26T07:18:17.221Z,100253.55
2022-10-26T07:20:49.386Z,100254.47
2022-10-26T07:23:22.988Z,100250.84
2022-10-26T07:25:55.258Z,100249.74
2022-10-26T07:28:27.516Z,100245.94
2022-10-26T07:31:00.825Z,100250.64
2022-10-26T07:33:35.821Z,100252.62
2022-10-26T07:36:08.729Z,100248.08
2022-10-26T07:38:41.632Z,100251.47
2022-10-26T07:41:14.545Z,100256.59
2022-10-26T07:43:46.620Z,100251.17
2022-10-26T07:46:18.840Z,100253.45
2022-10-26T07:48:50.851Z,100255.55
2022-10-26T07:51:22.913Z,100244.79
2022-10-26T07:53:54.996Z,100249.00
2022-10-26T07:56:27.260Z,100252.00
2022-10-26T07:58:59.359Z,100253.38
2022-10-26T08:01:31.795Z,100250.34
2022-10-26T08:04:04.168Z,100251.20
2022-10-26T08:06:36.690Z,100250.95
2022-10-26T08:09:09.623Z,100249.98
2022-10-26T08:11:41.601Z,100258.75
2022-10-26T08:14:13.578Z,100257.28
2022-10-26T08:16:46.367Z,100256.25
2022-10-26T08:19:18.357Z,100262.91
2022-10-26T08:21:50.448Z,100253.05
2022-10-26T08:24:22.482Z,100252.78
2022-10-26T08:26:54.729Z,100250.00
2022-10-26T08:29:27.116Z,100254.00
2022-10-26T08:31:59.215Z,100245.97
2022-10-26T08:34:31.611Z,100251.20
2022-10-26T08:37:03.862Z,100244.27
2022-10-26T08:39:36.863Z,100253.05
2022-10-26T08:42:20.445Z,100246.95
2022-10-26T08:44:57.012Z,100249.56
2022-10-26T08:47:32.151Z,100243.46
2022-10-26T08:50:12.909Z,100254.59
2022-10-26T08:53:07.288Z,100250.11
2022-10-26T08:56:13.890Z,100252.52
2022-10-26T08:59:01.218Z,100247.70
2022-10-26T09:01:34.691Z,100246.43
2022-10-26T09:04:09.788Z,100254.02
2022-10-26T09:06:59.512Z,100249.88
2022-10-26T09:09:50.762Z,100247.47
2022-10-26T09:12:34.621Z,100257.69
2022-10-26T09:15:21.198Z,100248.78
2022-10-26T09:18:04.414Z,100244.46
2022-10-26T09:20:55.949Z,100241.51
2022-10-26T09:23:42.402Z,100241.98
2022-10-26T09:26:17.643Z,100249.97
2022-10-26T09:28:50.558Z,100249.31
2022-10-26T09:31:24.552Z,100252.27
2022-10-26T09:33:56.779Z,100241.84
2022-10-26T09:36:29.320Z,100252.33
2022-10-26T09:39:22.371Z,100252.20
2022-10-26T09:42:00.034Z,100249.45
2022-10-26T09:44:43.454Z,100249.64
2022-10-26T09:47:33.117Z,100246.50
2022-10-26T09:50:17.450Z,100254.56
2022-10-26T09:52:49.809Z,100251.36
2022-10-26T09:55:23.079Z,100243.55
2022-10-26T09:58:00.853Z,100246.23
2022-10-26T10:03:22.706Z,100239.66
2022-10-26T10:05:57.235Z,100244.26
2022-10-26T10:08:29.214Z,100251.23
2022-10-26T10:11:03.708Z,100248.86
2022-10-26T10:13:39.400Z,100240.46
2022-10-26T10:16:25.685Z,100242.77
2022-10-26T10:19:00.371Z,100243.87
2022-10-26T10:21:44.303Z,100244.85
2022-10-26T10:24:31.166Z,100246.94
2022-10-26T10:27:06.085Z,100233.89
2022-10-26T10:29:43.340Z,100245.36
2022-10-26T10:32:24.029Z,100234.93
2022-10-26T10:34:57.767Z,100230.61
2022-10-26T10:37:38.817Z,100230.61
2022-10-26T10:40:26.003Z,100230.67
2022-10-26T10:43:09.922Z,100246.51
2022-10-26T10:45:42.269Z,100236.20
2022-10-26T10:48:17.044Z,100239.86
2022-10-26T10:51:03.813Z,100237.19
2022-10-26T10:53:53.275Z,100236.09
2022-10-26T10:56:30.776Z,100236.80
2022-10-26T10:59:24.999Z,100239.19
2022-10-26T11:02:00.311Z,100237.22
2022-10-26T11:05:08.029Z,100238.86
2022-10-26T11:07:46.023Z,100236.30
2022-10-26T11:10:20.991Z,100237.82
2022-10-26T11:12:58.777Z,100247.20
2022-10-26T11:15:34.297Z,100244.46
2022-10-26T11:18:11.716Z,100230.37
2022-10-26T11:20:46.970Z,100236.00
2022-10-26T11:23:45.999Z,100236.98
2022-10-26T11:26:20.725Z,100232.85
2022-10-26T11:28:55.635Z,100239.73
2022-10-26T11:31:47.073Z,100238.27
2022-10-26T11:34:27.769Z,100233.08
2022-10-26T11:37:02.663Z,100227.78
2022-10-26T11:39:49.355Z,100231.45
2022-10-26T11:42:34.893Z,100223.64
2022-10-26T11:45:18.722Z,100224.56
2022-10-26T11:48:10.016Z,100227.13
2022-10-26T11:50:45.108Z,100221.89
2022-10-26T11:53:29.245Z,100219.27
2022-10-26T11:56:03.161Z,100215.84
2022-10-26T11:58:35.544Z,100222.81
2022-10-26T12:01:13.193Z,100216.65
2022-10-26T12:03:51.209Z,100214.08
2022-10-26T12:06:25.950Z,100212.17
2022-10-26T12:09:15.930Z,100218.22
2022-10-26T12:11:51.370Z,100217.42
2022-10-26T12:14:44.596Z,100214.14
2022-10-26T12:17:22.178Z,100201.37
2022-10-26T12:20:15.066Z,100202.47
2022-10-26T12:22:48.169Z,100206.02
2022-10-26T12:25:22.905Z,100205.09
2022-10-26T12:27:55.535Z,100200.77
2022-10-26T12:30:30.125Z,100209.38
2022-10-26T12:33:07.584Z,100198.86
2022-10-26T12:35:46.487Z,100200.83
2022-10-26T12:38:27.943Z,100201.87
2022-10-26T12:41:22.562Z,100204.55
2022-10-26T12:43:57.355Z,100204.92
2022-10-26T12:46:32.277Z,100205.23
2022-10-26T12:49:04.442Z,100208.95
2022-10-26T12:51:40.028Z,100202.23
2022-10-26T12:54:15.255Z,100211.02
2022-10-26T12:57:12.937Z,100201.62
2022-10-26T12:59:50.806Z,100199.07
2022-10-26T13:02:46.498Z,100201.08
2022-10-26T13:05:39.275Z,100201.38
2022-10-26T13:08:13.154Z,100205.91
2022-10-26T13:11:00.445Z,100202.73
2022-10-26T13:13:34.324Z,100203.04
2022-10-26T13:16:06.706Z,100197.43
2022-10-26T13:18:44.222Z,100197.70
2022-10-26T13:21:19.196Z,100198.00
2022-10-26T13:24:01.080Z,100193.84
2022-10-26T13:26:34.210Z,100202.02
2022-10-26T13:29:06.475Z,100199.65
2022-10-26T13:31:44.437Z,100199.90
2022-10-26T13:34:25.238Z,100202.80
2022-10-26T13:37:06.203Z,100207.34
2022-10-26T13:39:43.362Z,100200.70
2022-10-26T13:42:18.749Z,100201.02
2022-10-26T13:45:02.424Z,100203.91
2022-10-26T13:48:10.469Z,100204.96
2022-10-26T13:51:00.701Z,100206.92
2022-10-26T13:53:44.557Z,100214.12
2022-10-26T13:56:36.179Z,100205.63
2022-10-26T13:59:13.718Z,100205.81
2022-10-26T14:01:45.978Z,100218.17
2022-10-26T14:04:19.515Z,100214.95
2022-10-26T14:06:54.282Z,100223.16
2022-10-26T14:09:28.617Z,100231.33
2022-10-26T14:12:03.963Z,100223.58
2022-10-26T14:14:40.029Z,100221.30
2022-10-26T14:17:23.549Z,100223.29
2022-10-26T14:19:55.742Z,100218.44
2022-10-26T14:22:30.214Z,100227.40
2022-10-26T14:25:02.901Z,100223.25
2022-10-26T14:27:38.003Z,100222.61
2022-10-26T14:30:27.665Z,100223.68
2022-10-26T14:33:00.358Z,100225.64
2022-10-26T14:35:39.847Z,100236.94
2022-10-26T14:38:20.818Z,100231.04
2022-10-26T14:40:52.700Z,100231.27
2022-10-26T14:43:26.857Z,100233.94
2022-10-26T14:45:58.818Z,100234.70
2022-10-26T14:48:36.593Z,100230.47
2022-10-26T14:51:11.835Z,100234.02
2022-10-26T14:53:46.714Z,100228.95
2022-10-26T14:56:28.861Z,100231.59
2022-10-26T14:59:02.720Z,100228.98
2022-10-26T15:01:36.852Z,100230.73
2022-10-26T15:04:10.688Z,100230.80
2022-10-26T15:06:45.746Z,100231.66
2022-10-26T15:09:35.617Z,100230.80
2022-10-26T15:12:09.821Z,100227.47
2022-10-26T15:14:42.773Z,100231.84
2022-10-26T15:17:23.796Z,100236.63
2022-10-26T15:19:57.964Z,100229.02
2022-10-26T15:22:32.324Z,100227.33
2022-10-26T15:25:06.854Z,100229.97
2022-10-26T15:27:39.043Z,100222.15
2022-10-26T15:30:14.191Z,100221.17
2022-10-26T15:32:46.759Z,100226.38
2022-10-26T15:35:27.631Z,100226.88
2022-10-26T15:38:01.489Z,100233.80
2022-10-26T15:40:34.145Z,100223.83
2022-10-26T15:43:06.389Z,100217.63
2022-10-26T15:45:41.249Z,100232.81
2022-10-26T15:48:29.417Z,100227.40
2022-10-26T15:51:02.090Z,100228.16
2022-10-26T15:53:34.154Z,100233.13
2022-10-26T15:56:09.272Z,100226.22
2022-10-26T15:58:41.689Z,100230.28
2022-10-26T16:01:23.522Z,100231.94
2022-10-26T16:03:56.338Z,100221.39
2022-10-26T16:06:31.503Z,100231.03
2022-10-26T16:09:05.824Z,100232.61
2022-10-26T16:11:38.440Z,100228.22
2022-10-26T16:14:13.496Z,100242.17
2022-10-26T16:16:45.723Z,100230.31
2022-10-26T16:19:30.287Z,100241.95
2022-10-26T16:21:55.443Z,100229.41
2022-10-26T16:24:28.655Z,100223.68
2022-10-26T16:27:00.772Z,100237.12
2022-10-26T16:29:33.069Z,100237.48
2022-10-26T16:32:05.386Z,100234.13
2022-10-26T16:34:37.522Z,100228.27
2022-10-26T16:37:09.401Z,100231.05
2022-10-26T16:39:41.448Z,100231.08
2022-10-26T16:42:13.849Z,100230.28
2022-10-26T16:44:46.050Z,100222.51
2022-10-26T16:49:52.191Z,100223.73
2022-10-26T16:52:24.080Z,100227.92
2022-10-26T16:54:56.331Z,100225.00
2022-10-26T16:57:28.759Z,100229.58
2022-10-26T17:00:00.767Z,100232.41
2022-10-26T17:02:33.373Z,100226.44
2022-10-26T17:05:07.352Z,100226.59
2022-10-26T17:07:39.512Z,100227.43
2022-10-26T17:10:11.873Z,100230.03
2022-10-26T17:12:44.388Z,100228.30
2022-10-26T17:15:19.709Z,100225.70
2022-10-26T17:17:50.511Z,100226.59
2022-10-26T17:20:22.483Z,100231.00
2022-10-26T17:22:54.497Z,100224.16
2022-10-26T17:25:26.979Z,100218.05
2022-10-26T17:27:59.702Z,100217.98
2022-10-26T17:30:34.241Z,100215.42
2022-10-26T17:33:06.936Z,100226.66
2022-10-26T17:35:38.843Z,100214.52
2022-10-26T17:38:10.759Z,100210.22
2022-10-26T17:40:42.839Z,100205.81
2022-10-26T17:43:14.967Z,100205.81
2022-10-26T17:45:47.913Z,100210.95
2022-10-26T17:48:19.833Z,100210.09
2022-10-26T17:50:53.364Z,100209.22
2022-10-26T17:53:25.624Z,100210.02
2022-10-26T17:56:09.115Z,100209.09
2022-10-26T17:58:41.165Z,100209.13
2022-10-26T18:01:14.869Z,100216.13
2022-10-26T18:03:47.338Z,100210.92
2022-10-26T18:06:19.674Z,100209.22
2022-10-26T18:08:51.929Z,100217.09
2022-10-26T18:11:27.378Z,100215.35
2022-10-26T18:13:59.741Z,100211.89
2022-10-26T18:16:31.579Z,100211.02
2022-10-26T18:19:05.691Z,100211.05
2022-10-26T18:21:40.698Z,100217.28
2022-10-26T18:24:12.872Z,100217.77
2022-10-26T18:26:44.950Z,100214.68
2022-10-26T18:29:17.093Z,100211.15
2022-10-26T18:31:49.477Z,100207.71
2022-10-26T18:34:22.171Z,100219.02
2022-10-26T18:36:55.461Z,100218.11
2022-10-26T18:39:27.294Z,100216.58
2022-10-26T18:41:59.377Z,100220.13
2022-10-26T18:44:31.437Z,100223.73
2022-10-26T18:47:03.560Z,100226.23
2022-10-26T18:49:35.713Z,100219.36
2022-10-26T18:52:07.824Z,100223.60
2022-10-26T18:54:39.704Z,100218.41
2022-10-26T18:57:11.602Z,100215.00
2022-10-26T18:59:44.010Z,100213.30
2022-10-26T19:02:16.597Z,100220.29
2022-10-26T19:04:48.683Z,100228.06
2022-10-26T19:07:20.710Z,100218.53
2022-10-26T19:09:52.941Z,100226.39
2022-10-26T19:12:24.873Z,100222.89
2022-10-26T19:14:56.965Z,100222.80
2022-10-26T19:17:33.395Z,100216.73
2022-10-26T19:20:05.941Z,100217.53
2022-10-26T19:22:37.894Z,100219.08
2022-10-26T19:25:10.654Z,100216.34
2022-10-26T19:27:42.441Z,100224.02
2022-10-26T19:30:15.540Z,100216.99
2022-10-26T19:32:47.709Z,100222.00
2022-10-26T19:35:19.684Z,100214.22
2022-10-26T19:37:51.950Z,100222.80
2022-10-26T19:40:24.170Z,100220.17
2022-10-26T19:42:56.206Z,100220.09
2022-10-26T19:45:28.136Z,100219.94
2022-10-26T19:48:00.327Z,100214.66
2022-10-26T19:50:32.337Z,100216.36
2022-10-26T19:53:04.505Z,100220.67
2022-10-26T19:55:36.481Z,100218.93
2022-10-26T19:58:08.538Z,100231.08
2022-10-26T20:00:41.424Z,100212.79
2022-10-26T20:03:13.709Z,100221.44
2022-10-26T20:05:45.609Z,100211.02
2022-10-26T20:08:19.659Z,100214.42
2022-10-26T20:10:53.101Z,100214.35
2022-10-26T20:13:25.448Z,100215.25
2022-10-26T20:15:57.476Z,100210.05
2022-10-26T20:18:30.234Z,100208.28
2022-10-26T20:21:02.202Z,100203.94
2022-10-26T20:23:34.205Z,100210.84
2022-10-26T20:28:38.403Z,100189.15
2022-10-26T20:31:10.345Z,100191.79
2022-10-26T20:33:42.460Z,100186.48
2022-10-26T20:36:15.297Z,100190.89
2022-10-26T20:38:47.632Z,100185.75
2022-10-26T20:41:20.005Z,100185.85
2022-10-26T20:43:54.478Z,100194.50
2022-10-26T20:46:26.715Z,100189.25
2022-10-26T20:48:58.668Z,100192.27
2022-10-26T20:52:02.721Z,100193.49
2022-10-26T20:54:33.305Z,100186.62
2022-10-26T20:57:08.469Z,100190.05
2022-10-26T20:59:43.311Z,100193.49
2022-10-26T21:02:16.870Z,100192.66
2022-10-26T21:04:49.025Z,100188.39
2022-10-26T21:07:21.340Z,100184.95
2022-10-26T21:09:53.708Z,100183.25
2022-10-26T21:12:25.838Z,100185.85
2022-10-26T21:14:57.867Z,100185.75
2022-10-26T21:17:29.991Z,100183.11
2022-10-26T21:20:03.299Z,100176.06
2022-10-26T21:22:36.053Z,100168.25
2022-10-26T21:25:08.309Z,100172.59
2022-10-26T21:27:41.189Z,100179.46
2022-10-26T21:30:14.200Z,100177.69
2022-10-26T21:32:46.257Z,100174.11
2022-10-26T21:35:18.495Z,100176.72
2022-10-26T21:37:56.208Z,100180.16
2022-10-26T21:40:27.472Z,100181.85
2022-10-26T21:42:59.189Z,100178.81
2022-10-26T21:45:31.667Z,100172.30
2022-10-26T21:48:03.592Z,100182.75
2022-10-26T21:50:35.617Z,100177.58
2022-10-26T21:53:07.640Z,100178.41
2022-10-26T21:55:39.486Z,100180.16
2022-10-26T21:58:11.990Z,100176.68
2022-10-26T22:00:43.969Z,100176.68
2022-10-26T22:03:17.160Z,100175.84
2022-10-26T22:05:55.205Z,100174.08
2022-10-26T22:08:27.189Z,100175.84
2022-10-26T22:10:59.704Z,100180.19
2022-10-26T22:13:31.607Z,100170.64
2022-10-26T22:16:05.986Z,100170.64
2022-10-26T22:18:37.779Z,100168.00
2022-10-26T22:21:10.226Z,100169.22
2022-10-26T22:23:43.452Z,100166.16
2022-10-26T22:26:17.678Z,100169.66
2022-10-26T22:28:51.876Z,100165.33
2022-10-26T22:34:09.829Z,100158.34
2022-10-26T22:36:42.024Z,100160.98
2022-10-26T22:39:14.062Z,100155.81
2022-10-26T22:41:45.844Z,100158.45
2022-10-26T22:44:17.968Z,100164.52
2022-10-26T22:46:49.913Z,100158.48
2022-10-26T22:49:22.027Z,100160.30
2022-10-26T22:51:54.266Z,100161.23
2022-10-26T22:54:26.548Z,100163.01
2022-10-26T22:56:58.588Z,100159.57
2022-10-26T22:59:30.545Z,100156.86
2022-10-26T23:02:02.661Z,100159.47
2022-10-26T23:04:36.305Z,100159.57
2022-10-26T23:07:08.489Z,100157.04
2022-10-26T23:09:40.404Z,100152.73
2022-10-26T23:12:12.469Z,100159.72
2022-10-26T23:14:44.411Z,100157.25
2022-10-26T23:17:16.408Z,100154.76
2022-10-26T23:19:48.415Z,100159.23
2022-10-26T23:22:20.283Z,100151.56
2022-10-26T23:24:52.182Z,100156.98
2022-10-26T23:27:24.247Z,100145.91
2022-10-26T23:29:56.250Z,100154.71
2022-10-26T23:32:28.428Z,100147.14
2022-10-26T23:35:00.345Z,100146.44
2022-10-26T23:37:32.644Z,100152.64
2022-10-26T23:40:04.972Z,100154.47
2022-10-26T23:42:36.975Z,100150.11
2022-10-26T23:45:09.166Z,100151.77
2022-10-26T23:47:41.449Z,100136.14
2022-10-26T23:50:13.382Z,100145.67
2022-10-26T23:52:50.321Z,100138.67
2022-10-26T23:55:22.261Z,100139.60
2022-10-26T23:57:54.421Z,100141.44
